sensor_id;sensor_type;location;lat;lon;timestamp;P1;durP1;ratioP1;P2;durP2;ratioP2
77522;SDS011;66637;-29.628;-49.938;2023-04-25T00:01:58;39.05;;;5.60;;
77522;SDS011;66637;-29.628;-49.938;2023-04-25T00:04:29;29.90;;;3.70;;
77522;SDS011;66637;-29.628;-49.938;2023-04-25T00:07:04;34.15;;;4.55;;
77522;SDS011;66637;-29.628;-49.938;2023-04-25T00:09:34;36.97;;;4.25;;
77522;SDS011;66637;-29.628;-49.938;2023-04-25T00:12:04;35.38;;;4.68;;
77522;SDS011;66637;-29.628;-49.938;2023-04-25T00:14:36;29.23;;;3.70;;
77522;SDS011;66637;-29.628;-49.938;2023-04-25T00:17:07;37.70;;;4.45;;
77522;SDS011;66637;-29.628;-49.938;2023-04-25T00:19:38;45.30;;;4.35;;
77522;SDS011;66637;-29.628;-49.938;2023-04-25T00:22:09;39.83;;;4.60;;
77522;SDS011;66637;-29.628;-49.938;2023-04-25T00:24:40;39.97;;;5.00;;
77522;SDS011;66637;-29.628;-49.938;2023-04-25T00:27:10;30.77;;;4.03;;
77522;SDS011;66637;-29.628;-49.938;2023-04-25T00:29:41;42.53;;;5.32;;
77522;SDS011;66637;-29.628;-49.938;2023-04-25T00:32:12;39.90;;;4.82;;
77522;SDS011;66637;-29.628;-49.938;2023-04-25T00:34:43;33.05;;;3.78;;
77522;SDS011;66637;-29.628;-49.938;2023-04-25T00:37:13;39.53;;;5.20;;
77522;SDS011;66637;-29.628;-49.938;2023-04-25T00:39:45;32.72;;;3.88;;
77522;SDS011;66637;-29.628;-49.938;2023-04-25T00:42:15;40.17;;;5.88;;
77522;SDS011;66637;-29.628;-49.938;2023-04-25T00:44:47;37.08;;;4.38;;
77522;SDS011;66637;-29.628;-49.938;2023-04-25T00:47:18;33.75;;;4.28;;
77522;SDS011;66637;-29.628;-49.938;2023-04-25T00:49:50;28.75;;;4.53;;
77522;SDS011;66637;-29.628;-49.938;2023-04-25T00:52:22;37.95;;;5.03;;
77522;SDS011;66637;-29.628;-49.938;2023-04-25T00:54:52;32.33;;;3.88;;
77522;SDS011;66637;-29.628;-49.938;2023-04-25T00:57:23;30.17;;;4.03;;
77522;SDS011;66637;-29.628;-49.938;2023-04-25T00:59:58;41.67;;;4.57;;
77522;SDS011;66637;-29.628;-49.938;2023-04-25T01:02:30;51.80;;;5.72;;
77522;SDS011;66637;-29.628;-49.938;2023-04-25T01:05:04;33.10;;;3.95;;
77522;SDS011;66637;-29.628;-49.938;2023-04-25T01:07:35;30.55;;;4.05;;
77522;SDS011;66637;-29.628;-49.938;2023-04-25T01:10:05;34.90;;;3.70;;
77522;SDS011;66637;-29.628;-49.938;2023-04-25T01:12:37;49.80;;;5.72;;
77522;SDS011;66637;-29.628;-49.938;2023-04-25T01:15:08;32.70;;;3.75;;
77522;SDS011;66637;-29.628;-49.938;2023-04-25T01:17:40;38.35;;;4.65;;
77522;SDS011;66637;-29.628;-49.938;2023-04-25T01:20:12;39.97;;;5.03;;
77522;SDS011;66637;-29.628;-49.938;2023-04-25T01:22:45;33.35;;;3.90;;
77522;SDS011;66637;-29.628;-49.938;2023-04-25T01:25:17;43.22;;;4.85;;
77522;SDS011;66637;-29.628;-49.938;2023-04-25T01:27:48;33.63;;;4.38;;
77522;SDS011;66637;-29.628;-49.938;2023-04-25T01:30:18;43.50;;;5.55;;
77522;SDS011;66637;-29.628;-49.938;2023-04-25T01:32:50;44.35;;;5.20;;
77522;SDS011;66637;-29.628;-49.938;2023-04-25T01:35:22;44.83;;;4.70;;
77522;SDS011;66637;-29.628;-49.938;2023-04-25T01:37:55;40.53;;;4.10;;
77522;SDS011;66637;-29.628;-49.938;2023-04-25T01:40:26;37.13;;;4.05;;
77522;SDS011;66637;-29.628;-49.938;2023-04-25T01:42:57;27.95;;;3.50;;
77522;SDS011;66637;-29.628;-49.938;2023-04-25T01:45:28;29.52;;;3.80;;
77522;SDS011;66637;-29.628;-49.938;2023-04-25T01:48:00;37.65;;;4.68;;
77522;SDS011;66637;-29.628;-49.938;2023-04-25T01:50:31;45.58;;;5.20;;
77522;SDS011;66637;-29.628;-49.938;2023-04-25T01:53:02;36.85;;;4.50;;
77522;SDS011;66637;-29.628;-49.938;2023-04-25T01:55:34;33.47;;;3.47;;
77522;SDS011;66637;-29.628;-49.938;2023-04-25T01:58:11;30.02;;;3.33;;
77522;SDS011;66637;-29.628;-49.938;2023-04-25T02:00:56;35.65;;;5.20;;
77522;SDS011;66637;-29.628;-49.938;2023-04-25T02:03:34;37.97;;;5.25;;
77522;SDS011;66637;-29.628;-49.938;2023-04-25T02:06:09;29.63;;;3.40;;
77522;SDS011;66637;-29.628;-49.938;2023-04-25T02:08:43;41.13;;;4.75;;
77522;SDS011;66637;-29.628;-49.938;2023-04-25T02:11:14;40.28;;;4.85;;
77522;SDS011;66637;-29.628;-49.938;2023-04-25T02:13:54;30.45;;;3.97;;
77522;SDS011;66637;-29.628;-49.938;2023-04-25T02:16:43;33.78;;;4.32;;
77522;SDS011;66637;-29.628;-49.938;2023-04-25T02:19:14;42.67;;;5.90;;
77522;SDS011;66637;-29.628;-49.938;2023-04-25T02:21:46;37.35;;;4.35;;
77522;SDS011;66637;-29.628;-49.938;2023-04-25T02:24:18;34.05;;;5.15;;
77522;SDS011;66637;-29.628;-49.938;2023-04-25T02:26:49;41.97;;;5.07;;
77522;SDS011;66637;-29.628;-49.938;2023-04-25T02:29:19;52.35;;;5.35;;
77522;SDS011;66637;-29.628;-49.938;2023-04-25T02:31:49;40.20;;;4.00;;
77522;SDS011;66637;-29.628;-49.938;2023-04-25T02:34:21;43.13;;;5.78;;
77522;SDS011;66637;-29.628;-49.938;2023-04-25T02:36:52;36.70;;;5.38;;
77522;SDS011;66637;-29.628;-49.938;2023-04-25T02:39:23;36.60;;;4.70;;
77522;SDS011;66637;-29.628;-49.938;2023-04-25T02:41:55;47.70;;;4.57;;
77522;SDS011;66637;-29.628;-49.938;2023-04-25T02:44:29;29.45;;;3.55;;
77522;SDS011;66637;-29.628;-49.938;2023-04-25T02:47:01;43.83;;;5.00;;
77522;SDS011;66637;-29.628;-49.938;2023-04-25T02:49:33;34.35;;;3.80;;
77522;SDS011;66637;-29.628;-49.938;2023-04-25T02:52:04;38.65;;;4.75;;
77522;SDS011;66637;-29.628;-49.938;2023-04-25T02:54:34;37.25;;;4.53;;
77522;SDS011;66637;-29.628;-49.938;2023-04-25T02:57:05;36.97;;;5.00;;
77522;SDS011;66637;-29.628;-49.938;2023-04-25T02:59:37;33.00;;;3.72;;
77522;SDS011;66637;-29.628;-49.938;2023-04-25T03:02:09;32.35;;;4.35;;
77522;SDS011;66637;-29.628;-49.938;2023-04-25T03:04:39;40.25;;;4.70;;
77522;SDS011;66637;-29.628;-49.938;2023-04-25T03:07:11;33.33;;;4.72;;
77522;SDS011;66637;-29.628;-49.938;2023-04-25T03:09:41;43.20;;;4.03;;
77522;SDS011;66637;-29.628;-49.938;2023-04-25T03:12:12;23.85;;;2.80;;
77522;SDS011;66637;-29.628;-49.938;2023-04-25T03:14:43;6.40;;;0.77;;
77522;SDS011;66637;-29.628;-49.938;2023-04-25T03:17:15;4.20;;;0.60;;
77522;SDS011;66637;-29.628;-49.938;2023-04-25T03:19:45;5.32;;;0.95;;
77522;SDS011;66637;-29.628;-49.938;2023-04-25T03:22:15;3.42;;;0.68;;
77522;SDS011;66637;-29.628;-49.938;2023-04-25T03:24:45;3.92;;;0.77;;
77522;SDS011;66637;-29.628;-49.938;2023-04-25T03:27:16;17.02;;;1.92;;
77522;SDS011;66637;-29.628;-49.938;2023-04-25T03:29:48;14.98;;;2.03;;
77522;SDS011;66637;-29.628;-49.938;2023-04-25T03:32:19;17.05;;;2.17;;
77522;SDS011;66637;-29.628;-49.938;2023-04-25T03:34:50;85.68;;;10.48;;
77522;SDS011;66637;-29.628;-49.938;2023-04-25T03:37:20;45.30;;;4.72;;
77522;SDS011;66637;-29.628;-49.938;2023-04-25T03:39:51;30.88;;;3.70;;
77522;SDS011;66637;-29.628;-49.938;2023-04-25T03:42:24;41.45;;;5.10;;
77522;SDS011;66637;-29.628;-49.938;2023-04-25T03:44:54;49.78;;;5.30;;
77522;SDS011;66637;-29.628;-49.938;2023-04-25T03:47:24;40.70;;;5.90;;
77522;SDS011;66637;-29.628;-49.938;2023-04-25T03:49:56;34.92;;;4.10;;
77522;SDS011;66637;-29.628;-49.938;2023-04-25T03:52:28;27.98;;;3.75;;
77522;SDS011;66637;-29.628;-49.938;2023-04-25T03:55:00;24.33;;;2.90;;
77522;SDS011;66637;-29.628;-49.938;2023-04-25T03:57:30;19.17;;;2.50;;
77522;SDS011;66637;-29.628;-49.938;2023-04-25T04:00:01;12.88;;;1.67;;
77522;SDS011;66637;-29.628;-49.938;2023-04-25T04:02:39;9.32;;;0.95;;
77522;SDS011;66637;-29.628;-49.938;2023-04-25T04:05:13;3.78;;;0.70;;
77522;SDS011;66637;-29.628;-49.938;2023-04-25T04:07:50;5.95;;;0.60;;
77522;SDS011;66637;-29.628;-49.938;2023-04-25T04:10:22;1.63;;;0.80;;
77522;SDS011;66637;-29.628;-49.938;2023-04-25T04:12:54;5.22;;;0.50;;
77522;SDS011;66637;-29.628;-49.938;2023-04-25T04:15:26;6.68;;;0.80;;
77522;SDS011;66637;-29.628;-49.938;2023-04-25T04:17:56;4.47;;;0.68;;
77522;SDS011;66637;-29.628;-49.938;2023-04-25T04:20:34;3.95;;;0.60;;
77522;SDS011;66637;-29.628;-49.938;2023-04-25T04:23:05;6.60;;;1.20;;
77522;SDS011;66637;-29.628;-49.938;2023-04-25T04:25:37;6.32;;;0.70;;
77522;SDS011;66637;-29.628;-49.938;2023-04-25T04:28:32;5.70;;;0.90;;
77522;SDS011;66637;-29.628;-49.938;2023-04-25T04:31:22;3.97;;;1.00;;
77522;SDS011;66637;-29.628;-49.938;2023-04-25T04:33:53;6.07;;;1.20;;
77522;SDS011;66637;-29.628;-49.938;2023-04-25T04:36:24;7.93;;;1.00;;
77522;SDS011;66637;-29.628;-49.938;2023-04-25T04:38:56;5.65;;;1.35;;
77522;SDS011;66637;-29.628;-49.938;2023-04-25T04:41:47;6.95;;;1.10;;
77522;SDS011;66637;-29.628;-49.938;2023-04-25T04:44:35;4.05;;;1.33;;
77522;SDS011;66637;-29.628;-49.938;2023-04-25T04:47:47;6.00;;;1.60;;
77522;SDS011;66637;-29.628;-49.938;2023-04-25T04:50:37;5.47;;;1.20;;
77522;SDS011;66637;-29.628;-49.938;2023-04-25T04:53:14;3.45;;;1.30;;
77522;SDS011;66637;-29.628;-49.938;2023-04-25T04:56:03;4.18;;;1.52;;
77522;SDS011;66637;-29.628;-49.938;2023-04-25T04:58:56;3.72;;;1.30;;
77522;SDS011;66637;-29.628;-49.938;2023-04-25T05:01:34;7.00;;;1.20;;
77522;SDS011;66637;-29.628;-49.938;2023-04-25T05:04:19;5.93;;;1.35;;
77522;SDS011;66637;-29.628;-49.938;2023-04-25T05:07:23;5.25;;;1.20;;
77522;SDS011;66637;-29.628;-49.938;2023-04-25T05:10:26;3.47;;;1.17;;
77522;SDS011;66637;-29.628;-49.938;2023-04-25T05:12:56;7.43;;;1.27;;
77522;SDS011;66637;-29.628;-49.938;2023-04-25T05:15:52;5.50;;;1.55;;
77522;SDS011;66637;-29.628;-49.938;2023-04-25T05:18:56;6.13;;;1.13;;
77522;SDS011;66637;-29.628;-49.938;2023-04-25T05:21:32;6.45;;;1.52;;
77522;SDS011;66637;-29.628;-49.938;2023-04-25T05:24:22;5.03;;;1.30;;
77522;SDS011;66637;-29.628;-49.938;2023-04-25T05:27:21;4.53;;;1.30;;
77522;SDS011;66637;-29.628;-49.938;2023-04-25T05:30:20;8.98;;;1.55;;
77522;SDS011;66637;-29.628;-49.938;2023-04-25T05:33:11;7.13;;;1.50;;
77522;SDS011;66637;-29.628;-49.938;2023-04-25T05:35:45;6.18;;;1.50;;
77522;SDS011;66637;-29.628;-49.938;2023-04-25T05:38:15;4.93;;;1.30;;
77522;SDS011;66637;-29.628;-49.938;2023-04-25T05:41:05;4.43;;;1.77;;
77522;SDS011;66637;-29.628;-49.938;2023-04-25T05:43:42;4.03;;;1.40;;
77522;SDS011;66637;-29.628;-49.938;2023-04-25T05:46:23;8.20;;;2.10;;
77522;SDS011;66637;-29.628;-49.938;2023-04-25T05:49:14;10.80;;;1.92;;
77522;SDS011;66637;-29.628;-49.938;2023-04-25T05:52:04;6.72;;;1.85;;
77522;SDS011;66637;-29.628;-49.938;2023-04-25T05:54:48;5.63;;;1.80;;
77522;SDS011;66637;-29.628;-49.938;2023-04-25T05:57:26;3.58;;;1.80;;
77522;SDS011;66637;-29.628;-49.938;2023-04-25T05:59:58;7.07;;;1.90;;
77522;SDS011;66637;-29.628;-49.938;2023-04-25T06:02:42;5.65;;;1.98;;
77522;SDS011;66637;-29.628;-49.938;2023-04-25T06:05:15;7.10;;;2.40;;
77522;SDS011;66637;-29.628;-49.938;2023-04-25T06:07:47;3.50;;;1.90;;
77522;SDS011;66637;-29.628;-49.938;2023-04-25T06:10:18;5.13;;;1.90;;
77522;SDS011;66637;-29.628;-49.938;2023-04-25T06:12:49;7.05;;;1.92;;
77522;SDS011;66637;-29.628;-49.938;2023-04-25T06:15:21;5.75;;;2.00;;
77522;SDS011;66637;-29.628;-49.938;2023-04-25T06:17:55;8.65;;;1.98;;
77522;SDS011;66637;-29.628;-49.938;2023-04-25T06:20:28;5.70;;;1.73;;
77522;SDS011;66637;-29.628;-49.938;2023-04-25T06:23:00;4.30;;;1.80;;
77522;SDS011;66637;-29.628;-49.938;2023-04-25T06:25:48;5.90;;;2.40;;
77522;SDS011;66637;-29.628;-49.938;2023-04-25T06:28:19;3.40;;;1.67;;
77522;SDS011;66637;-29.628;-49.938;2023-04-25T06:33:30;9.00;;;1.73;;
77522;SDS011;66637;-29.628;-49.938;2023-04-25T06:36:00;7.18;;;1.98;;
77522;SDS011;66637;-29.628;-49.938;2023-04-25T06:38:32;8.13;;;1.90;;
77522;SDS011;66637;-29.628;-49.938;2023-04-25T06:41:05;5.80;;;2.00;;
77522;SDS011;66637;-29.628;-49.938;2023-04-25T06:43:36;4.38;;;2.15;;
77522;SDS011;66637;-29.628;-49.938;2023-04-25T06:46:24;4.57;;;1.83;;
77522;SDS011;66637;-29.628;-49.938;2023-04-25T06:48:58;8.00;;;1.95;;
77522;SDS011;66637;-29.628;-49.938;2023-04-25T06:51:29;6.93;;;1.90;;
77522;SDS011;66637;-29.628;-49.938;2023-04-25T06:54:00;9.27;;;2.22;;
77522;SDS011;66637;-29.628;-49.938;2023-04-25T06:56:39;9.40;;;2.17;;
77522;SDS011;66637;-29.628;-49.938;2023-04-25T06:59:14;5.97;;;1.90;;
77522;SDS011;66637;-29.628;-49.938;2023-04-25T07:01:45;6.57;;;2.40;;
77522;SDS011;66637;-29.628;-49.938;2023-04-25T07:04:24;5.38;;;2.17;;
77522;SDS011;66637;-29.628;-49.938;2023-04-25T07:06:56;6.10;;;2.40;;
77522;SDS011;66637;-29.628;-49.938;2023-04-25T07:09:36;9.50;;;2.60;;
77522;SDS011;66637;-29.628;-49.938;2023-04-25T07:12:07;6.45;;;2.00;;
77522;SDS011;66637;-29.628;-49.938;2023-04-25T07:14:38;4.65;;;2.20;;
77522;SDS011;66637;-29.628;-49.938;2023-04-25T07:17:10;8.43;;;2.28;;
77522;SDS011;66637;-29.628;-49.938;2023-04-25T07:19:40;7.78;;;3.15;;
77522;SDS011;66637;-29.628;-49.938;2023-04-25T07:22:11;6.55;;;3.05;;
77522;SDS011;66637;-29.628;-49.938;2023-04-25T07:24:42;8.23;;;2.40;;
77522;SDS011;66637;-29.628;-49.938;2023-04-25T07:27:19;4.80;;;2.58;;
77522;SDS011;66637;-29.628;-49.938;2023-04-25T07:30:13;16.38;;;3.42;;
77522;SDS011;66637;-29.628;-49.938;2023-04-25T07:32:44;7.35;;;2.70;;
77522;SDS011;66637;-29.628;-49.938;2023-04-25T07:35:16;9.77;;;3.03;;
77522;SDS011;66637;-29.628;-49.938;2023-04-25T07:37:47;6.35;;;2.92;;
77522;SDS011;66637;-29.628;-49.938;2023-04-25T07:40:19;7.75;;;2.30;;
77522;SDS011;66637;-29.628;-49.938;2023-04-25T07:42:58;7.88;;;2.70;;
77522;SDS011;66637;-29.628;-49.938;2023-04-25T07:45:37;6.05;;;3.00;;
77522;SDS011;66637;-29.628;-49.938;2023-04-25T07:48:08;7.22;;;2.80;;
77522;SDS011;66637;-29.628;-49.938;2023-04-25T07:50:40;4.63;;;2.97;;
77522;SDS011;66637;-29.628;-49.938;2023-04-25T07:53:11;7.25;;;2.90;;
77522;SDS011;66637;-29.628;-49.938;2023-04-25T07:55:49;6.55;;;2.70;;
77522;SDS011;66637;-29.628;-49.938;2023-04-25T07:58:21;8.90;;;3.20;;
77522;SDS011;66637;-29.628;-49.938;2023-04-25T08:00:55;6.57;;;2.58;;
77522;SDS011;66637;-29.628;-49.938;2023-04-25T08:03:36;10.30;;;3.20;;
77522;SDS011;66637;-29.628;-49.938;2023-04-25T08:06:15;6.55;;;2.88;;
77522;SDS011;66637;-29.628;-49.938;2023-04-25T08:09:08;4.95;;;2.80;;
77522;SDS011;66637;-29.628;-49.938;2023-04-25T08:11:41;7.82;;;2.45;;
77522;SDS011;66637;-29.628;-49.938;2023-04-25T08:14:15;6.95;;;2.85;;
77522;SDS011;66637;-29.628;-49.938;2023-04-25T08:16:46;18.67;;;3.30;;
77522;SDS011;66637;-29.628;-49.938;2023-04-25T08:19:18;26.20;;;3.70;;
77522;SDS011;66637;-29.628;-49.938;2023-04-25T08:21:49;25.60;;;4.38;;
77522;SDS011;66637;-29.628;-49.938;2023-04-25T08:24:27;21.90;;;4.85;;
77522;SDS011;66637;-29.628;-49.938;2023-04-25T08:26:58;22.23;;;4.15;;
77522;SDS011;66637;-29.628;-49.938;2023-04-25T08:29:30;16.38;;;3.75;;
77522;SDS011;66637;-29.628;-49.938;2023-04-25T08:32:01;12.57;;;2.97;;
77522;SDS011;66637;-29.628;-49.938;2023-04-25T08:34:34;15.98;;;3.00;;
77522;SDS011;66637;-29.628;-49.938;2023-04-25T08:37:06;12.73;;;3.00;;
77522;SDS011;66637;-29.628;-49.938;2023-04-25T08:42:43;15.82;;;2.70;;
77522;SDS011;66637;-29.628;-49.938;2023-04-25T08:45:16;16.25;;;2.90;;
77522;SDS011;66637;-29.628;-49.938;2023-04-25T08:47:47;28.25;;;3.78;;
77522;SDS011;66637;-29.628;-49.938;2023-04-25T08:50:21;24.85;;;4.05;;
77522;SDS011;66637;-29.628;-49.938;2023-04-25T08:52:53;28.23;;;4.63;;
77522;SDS011;66637;-29.628;-49.938;2023-04-25T08:55:25;28.35;;;4.30;;
77522;SDS011;66637;-29.628;-49.938;2023-04-25T08:57:59;26.85;;;4.63;;
77522;SDS011;66637;-29.628;-49.938;2023-04-25T09:00:30;29.50;;;4.22;;
77522;SDS011;66637;-29.628;-49.938;2023-04-25T09:03:01;31.08;;;4.30;;
77522;SDS011;66637;-29.628;-49.938;2023-04-25T09:05:33;39.28;;;4.97;;
77522;SDS011;66637;-29.628;-49.938;2023-04-25T09:08:05;39.13;;;6.20;;
77522;SDS011;66637;-29.628;-49.938;2023-04-25T09:10:37;47.72;;;6.55;;
77522;SDS011;66637;-29.628;-49.938;2023-04-25T09:13:11;47.45;;;6.93;;
77522;SDS011;66637;-29.628;-49.938;2023-04-25T09:16:14;50.30;;;6.07;;
77522;SDS011;66637;-29.628;-49.938;2023-04-25T09:19:07;39.05;;;5.68;;
77522;SDS011;66637;-29.628;-49.938;2023-04-25T09:22:06;33.13;;;4.53;;
77522;SDS011;66637;-29.628;-49.938;2023-04-25T09:24:38;22.85;;;3.90;;
77522;SDS011;66637;-29.628;-49.938;2023-04-25T09:27:13;16.00;;;2.70;;
77522;SDS011;66637;-29.628;-49.938;2023-04-25T09:29:49;14.65;;;2.50;;
77522;SDS011;66637;-29.628;-49.938;2023-04-25T09:32:42;7.40;;;1.90;;
77522;SDS011;66637;-29.628;-49.938;2023-04-25T09:35:25;5.60;;;1.92;;
77522;SDS011;66637;-29.628;-49.938;2023-04-25T09:37:59;5.47;;;1.75;;
77522;SDS011;66637;-29.628;-49.938;2023-04-25T09:40:49;5.95;;;2.00;;
77522;SDS011;66637;-29.628;-49.938;2023-04-25T09:43:48;6.65;;;2.17;;
77522;SDS011;66637;-29.628;-49.938;2023-04-25T09:46:21;9.02;;;1.98;;
77522;SDS011;66637;-29.628;-49.938;2023-04-25T09:48:55;5.35;;;2.20;;
77522;SDS011;66637;-29.628;-49.938;2023-04-25T09:51:33;8.18;;;2.60;;
77522;SDS011;66637;-29.628;-49.938;2023-04-25T09:54:06;9.00;;;2.72;;
77522;SDS011;66637;-29.628;-49.938;2023-04-25T09:56:41;10.95;;;3.15;;
77522;SDS011;66637;-29.628;-49.938;2023-04-25T09:59:13;6.97;;;2.85;;
77522;SDS011;66637;-29.628;-49.938;2023-04-25T10:01:45;7.15;;;2.67;;
77522;SDS011;66637;-29.628;-49.938;2023-04-25T10:04:25;5.90;;;2.28;;
77522;SDS011;66637;-29.628;-49.938;2023-04-25T10:07:07;6.07;;;2.70;;
77522;SDS011;66637;-29.628;-49.938;2023-04-25T10:09:39;8.75;;;2.65;;
77522;SDS011;66637;-29.628;-49.938;2023-04-25T10:12:10;5.38;;;2.63;;
77522;SDS011;66637;-29.628;-49.938;2023-04-25T10:14:42;6.68;;;2.90;;
77522;SDS011;66637;-29.628;-49.938;2023-04-25T10:17:12;6.15;;;2.45;;
77522;SDS011;66637;-29.628;-49.938;2023-04-25T10:19:46;7.72;;;3.63;;
77522;SDS011;66637;-29.628;-49.938;2023-04-25T10:24:59;7.07;;;2.92;;
77522;SDS011;66637;-29.628;-49.938;2023-04-25T10:27:33;8.73;;;3.00;;
77522;SDS011;66637;-29.628;-49.938;2023-04-25T10:30:08;7.43;;;3.17;;
77522;SDS011;66637;-29.628;-49.938;2023-04-25T10:32:44;11.35;;;3.00;;
77522;SDS011;66637;-29.628;-49.938;2023-04-25T10:35:19;8.07;;;2.67;;
77522;SDS011;66637;-29.628;-49.938;2023-04-25T10:38:04;7.93;;;2.50;;
77522;SDS011;66637;-29.628;-49.938;2023-04-25T10:40:35;11.23;;;2.97;;
77522;SDS011;66637;-29.628;-49.938;2023-04-25T10:46:12;25.48;;;4.60;;
77522;SDS011;66637;-29.628;-49.938;2023-04-25T10:48:52;22.05;;;3.50;;
77522;SDS011;66637;-29.628;-49.938;2023-04-25T10:51:25;14.85;;;3.20;;
77522;SDS011;66637;-29.628;-49.938;2023-04-25T10:54:17;7.78;;;2.03;;
77522;SDS011;66637;-29.628;-49.938;2023-04-25T10:56:50;7.28;;;1.73;;
77522;SDS011;66637;-29.628;-49.938;2023-04-25T10:59:20;6.03;;;1.83;;
77522;SDS011;66637;-29.628;-49.938;2023-04-25T11:01:55;3.97;;;1.85;;
77522;SDS011;66637;-29.628;-49.938;2023-04-25T11:04:29;3.58;;;1.85;;
77522;SDS011;66637;-29.628;-49.938;2023-04-25T11:09:38;5.75;;;2.28;;
77522;SDS011;66637;-29.628;-49.938;2023-04-25T11:12:10;4.63;;;2.10;;
77522;SDS011;66637;-29.628;-49.938;2023-04-25T11:14:43;5.85;;;2.30;;
77522;SDS011;66637;-29.628;-49.938;2023-04-25T11:17:15;6.28;;;2.10;;
77522;SDS011;66637;-29.628;-49.938;2023-04-25T11:19:45;4.78;;;2.22;;
77522;SDS011;66637;-29.628;-49.938;2023-04-25T11:22:19;4.72;;;2.10;;
77522;SDS011;66637;-29.628;-49.938;2023-04-25T11:24:51;8.20;;;2.60;;
77522;SDS011;66637;-29.628;-49.938;2023-04-25T11:27:22;5.82;;;2.20;;
77522;SDS011;66637;-29.628;-49.938;2023-04-25T11:29:54;6.30;;;2.08;;
77522;SDS011;66637;-29.628;-49.938;2023-04-25T11:32:25;8.18;;;2.20;;
77522;SDS011;66637;-29.628;-49.938;2023-04-25T11:34:58;7.28;;;2.28;;
77522;SDS011;66637;-29.628;-49.938;2023-04-25T11:37:29;10.38;;;2.72;;
77522;SDS011;66637;-29.628;-49.938;2023-04-25T11:40:02;13.80;;;4.18;;
77522;SDS011;66637;-29.628;-49.938;2023-04-25T11:42:41;33.60;;;5.28;;
77522;SDS011;66637;-29.628;-49.938;2023-04-25T11:45:14;31.75;;;5.68;;
77522;SDS011;66637;-29.628;-49.938;2023-04-25T11:47:46;44.55;;;7.65;;
77522;SDS011;66637;-29.628;-49.938;2023-04-25T11:50:18;37.55;;;7.32;;
77522;SDS011;66637;-29.628;-49.938;2023-04-25T11:52:49;54.35;;;7.63;;
77522;SDS011;66637;-29.628;-49.938;2023-04-25T11:55:20;20.50;;;4.38;;
77522;SDS011;66637;-29.628;-49.938;2023-04-25T11:57:50;31.33;;;4.90;;
77522;SDS011;66637;-29.628;-49.938;2023-04-25T12:00:21;29.13;;;4.82;;
77522;SDS011;66637;-29.628;-49.938;2023-04-25T12:02:54;31.80;;;4.40;;
77522;SDS011;66637;-29.628;-49.938;2023-04-25T12:05:29;24.58;;;4.55;;
77522;SDS011;66637;-29.628;-49.938;2023-04-25T12:10:43;22.95;;;2.90;;
77522;SDS011;66637;-29.628;-49.938;2023-04-25T12:15:53;18.73;;;2.75;;
77522;SDS011;66637;-29.628;-49.938;2023-04-25T12:18:26;16.83;;;2.53;;
77522;SDS011;66637;-29.628;-49.938;2023-04-25T12:20:57;22.08;;;3.38;;
77522;SDS011;66637;-29.628;-49.938;2023-04-25T12:23:29;14.23;;;2.85;;
77522;SDS011;66637;-29.628;-49.938;2023-04-25T12:25:59;19.23;;;2.90;;
77522;SDS011;66637;-29.628;-49.938;2023-04-25T12:28:33;23.60;;;3.17;;
77522;SDS011;66637;-29.628;-49.938;2023-04-25T12:31:04;11.75;;;2.45;;
77522;SDS011;66637;-29.628;-49.938;2023-04-25T12:33:37;15.68;;;3.00;;
77522;SDS011;66637;-29.628;-49.938;2023-04-25T12:36:09;22.83;;;3.53;;
77522;SDS011;66637;-29.628;-49.938;2023-04-25T12:38:41;15.95;;;2.47;;
77522;SDS011;66637;-29.628;-49.938;2023-04-25T12:41:13;8.02;;;1.67;;
77522;SDS011;66637;-29.628;-49.938;2023-04-25T12:43:45;6.65;;;1.33;;
77522;SDS011;66637;-29.628;-49.938;2023-04-25T12:46:15;5.32;;;2.00;;
77522;SDS011;66637;-29.628;-49.938;2023-04-25T12:48:47;5.00;;;1.40;;
77522;SDS011;66637;-29.628;-49.938;2023-04-25T12:51:19;18.35;;;2.92;;
77522;SDS011;66637;-29.628;-49.938;2023-04-25T12:53:51;12.43;;;1.90;;
77522;SDS011;66637;-29.628;-49.938;2023-04-25T12:56:22;35.50;;;4.47;;
77522;SDS011;66637;-29.628;-49.938;2023-04-25T12:58:53;23.20;;;3.88;;
77522;SDS011;66637;-29.628;-49.938;2023-04-25T13:01:24;27.40;;;3.63;;
77522;SDS011;66637;-29.628;-49.938;2023-04-25T13:03:56;31.50;;;5.47;;
77522;SDS011;66637;-29.628;-49.938;2023-04-25T13:06:27;20.95;;;2.97;;
77522;SDS011;66637;-29.628;-49.938;2023-04-25T13:09:00;24.90;;;3.95;;
77522;SDS011;66637;-29.628;-49.938;2023-04-25T13:11:30;29.98;;;4.03;;
77522;SDS011;66637;-29.628;-49.938;2023-04-25T13:14:01;29.50;;;4.70;;
77522;SDS011;66637;-29.628;-49.938;2023-04-25T13:16:32;38.33;;;5.47;;
77522;SDS011;66637;-29.628;-49.938;2023-04-25T13:19:04;43.10;;;4.93;;
77522;SDS011;66637;-29.628;-49.938;2023-04-25T13:21:36;32.97;;;5.38;;
77522;SDS011;66637;-29.628;-49.938;2023-04-25T13:24:08;29.70;;;3.95;;
77522;SDS011;66637;-29.628;-49.938;2023-04-25T13:26:39;22.58;;;3.75;;
77522;SDS011;66637;-29.628;-49.938;2023-04-25T13:29:10;28.02;;;3.78;;
77522;SDS011;66637;-29.628;-49.938;2023-04-25T13:31:40;28.48;;;3.80;;
77522;SDS011;66637;-29.628;-49.938;2023-04-25T13:34:11;26.65;;;4.70;;
77522;SDS011;66637;-29.628;-49.938;2023-04-25T13:36:42;30.27;;;3.88;;
77522;SDS011;66637;-29.628;-49.938;2023-04-25T13:39:13;24.15;;;3.30;;
77522;SDS011;66637;-29.628;-49.938;2023-04-25T13:41:44;22.70;;;4.05;;
77522;SDS011;66637;-29.628;-49.938;2023-04-25T13:44:15;29.48;;;4.43;;
77522;SDS011;66637;-29.628;-49.938;2023-04-25T13:46:47;32.95;;;5.10;;
77522;SDS011;66637;-29.628;-49.938;2023-04-25T13:49:18;25.00;;;3.58;;
77522;SDS011;66637;-29.628;-49.938;2023-04-25T13:51:49;19.92;;;2.97;;
77522;SDS011;66637;-29.628;-49.938;2023-04-25T13:54:19;23.70;;;3.03;;
77522;SDS011;66637;-29.628;-49.938;2023-04-25T13:56:50;28.45;;;4.30;;
77522;SDS011;66637;-29.628;-49.938;2023-04-25T13:59:23;23.63;;;3.38;;
77522;SDS011;66637;-29.628;-49.938;2023-04-25T14:01:55;31.83;;;4.13;;
77522;SDS011;66637;-29.628;-49.938;2023-04-25T14:04:27;25.20;;;3.97;;
77522;SDS011;66637;-29.628;-49.938;2023-04-25T14:06:59;26.88;;;3.53;;
77522;SDS011;66637;-29.628;-49.938;2023-04-25T14:09:30;23.50;;;4.72;;
77522;SDS011;66637;-29.628;-49.938;2023-04-25T14:12:00;31.25;;;4.78;;
77522;SDS011;66637;-29.628;-49.938;2023-04-25T14:37:20;22.77;;;3.45;;
77522;SDS011;66637;-29.628;-49.938;2023-04-25T14:39:52;28.60;;;4.00;;
77522;SDS011;66637;-29.628;-49.938;2023-04-25T14:42:23;24.00;;;3.17;;
77522;SDS011;66637;-29.628;-49.938;2023-04-25T14:44:55;19.63;;;3.38;;
77522;SDS011;66637;-29.628;-49.938;2023-04-25T14:47:26;22.05;;;2.85;;
77522;SDS011;66637;-29.628;-49.938;2023-04-25T14:49:58;20.10;;;2.53;;
77522;SDS011;66637;-29.628;-49.938;2023-04-25T14:52:30;20.55;;;3.53;;
77522;SDS011;66637;-29.628;-49.938;2023-04-25T14:55:01;24.67;;;3.20;;
77522;SDS011;66637;-29.628;-49.938;2023-04-25T14:57:34;23.02;;;2.85;;
77522;SDS011;66637;-29.628;-49.938;2023-04-25T15:00:07;21.42;;;3.08;;
77522;SDS011;66637;-29.628;-49.938;2023-04-25T15:02:40;20.88;;;3.30;;
77522;SDS011;66637;-29.628;-49.938;2023-04-25T15:05:10;24.73;;;2.78;;
77522;SDS011;66637;-29.628;-49.938;2023-04-25T15:07:42;23.98;;;3.28;;
77522;SDS011;66637;-29.628;-49.938;2023-04-25T15:10:12;20.98;;;2.70;;
77522;SDS011;66637;-29.628;-49.938;2023-04-25T15:12:46;20.08;;;3.28;;
77522;SDS011;66637;-29.628;-49.938;2023-04-25T15:15:19;16.92;;;2.90;;
77522;SDS011;66637;-29.628;-49.938;2023-04-25T15:17:55;28.63;;;4.10;;
77522;SDS011;66637;-29.628;-49.938;2023-04-25T15:20:26;23.58;;;2.63;;
77522;SDS011;66637;-29.628;-49.938;2023-04-25T15:22:57;16.60;;;2.50;;
77522;SDS011;66637;-29.628;-49.938;2023-04-25T15:25:28;19.65;;;2.50;;